Time;durP1;ratioP1;P1;durP2;ratioP2;P2;SDS_P1;SDS_P2;PMS_P1;PMS_P2;Temp;Humidity;BMP_temperature;BMP_pressure;BME280_temperature;BME280_humidity;BME280_pressure;Samples;Min_cycle;Max_cycle;Signal;HPM_P1;HPM_P2
2023/12/22 00:01:28;;;;;;;41.25;6.75;;;5.90;99.90;;;;;;5052660;28;20127;-72
2023/12/22 00:03:54;;;;;;;31.83;6.70;;;6.00;99.90;;;;;;5068011;28;20048;-73
2023/12/22 00:06:20;;;;;;;27.40;5.50;;;6.00;99.90;;;;;;5052930;28;20048;-72
2023/12/22 00:08:45;;;;;;;26.70;5.13;;;6.10;99.90;;;;;;5052869;28;20044;-73
2023/12/22 00:11:11;;;;;;;23.45;5.00;;;6.10;99.90;;;;;;5051332;28;20159;-72
2023/12/22 00:13:37;;;;;;;24.02;4.63;;;6.10;99.90;;;;;;5026634;28;20098;-73
2023/12/22 00:16:03;;;;;;;29.33;5.95;;;6.10;99.90;;;;;;5051777;28;20124;-71
2023/12/22 00:18:28;;;;;;;16.27;4.20;;;5.90;99.90;;;;;;5050025;28;20033;-70
2023/12/22 00:20:54;;;;;;;16.08;3.75;;;5.70;99.90;;;;;;5052538;28;20052;-70
2023/12/22 00:23:20;;;;;;;19.95;3.58;;;5.50;99.90;;;;;;5052854;28;20045;-70
2023/12/22 00:25:45;;;;;;;23.73;4.82;;;5.40;99.90;;;;;;5050811;28;20049;-70
2023/12/22 00:28:11;;;;;;;27.38;5.30;;;5.30;99.90;;;;;;5052089;28;20053;-70
2023/12/22 00:30:37;;;;;;;26.02;4.50;;;5.30;99.90;;;;;;5051411;28;20064;-71
2023/12/22 00:33:02;;;;;;;22.13;4.82;;;5.30;99.90;;;;;;5041745;28;20099;-71
2023/12/22 00:35:28;;;;;;;23.35;4.68;;;5.30;99.90;;;;;;5052516;28;20044;-71
2023/12/22 00:37:54;;;;;;;28.90;4.65;;;5.40;99.90;;;;;;5050660;28;20045;-71
2023/12/22 00:40:20;;;;;;;25.38;5.95;;;5.40;99.90;;;;;;5052442;28;20120;-71
2023/12/22 00:42:45;;;;;;;13.18;2.90;;;5.40;99.90;;;;;;5051114;28;20227;-70
2023/12/22 00:45:11;;;;;;;8.90;2.17;;;5.40;99.90;;;;;;5051851;28;20056;-71
2023/12/22 00:47:37;;;;;;;15.00;3.38;;;5.30;99.90;;;;;;5050283;28;20041;-71
2023/12/22 00:50:04;;;;;;;13.27;3.15;;;5.30;99.90;;;;;;5048286;28;20045;-71
2023/12/22 00:52:30;;;;;;;15.27;4.22;;;5.30;99.90;;;;;;5052087;28;20041;-71
2023/12/22 00:54:56;;;;;;;23.48;4.40;;;5.30;99.90;;;;;;5050654;28;20049;-71
2023/12/22 00:57:22;;;;;;;23.88;4.90;;;5.30;99.90;;;;;;5051581;28;20511;-72
2023/12/22 00:59:48;;;;;;;17.35;4.63;;;5.40;99.90;;;;;;5051757;28;20044;-71
2023/12/22 01:02:15;;;;;;;20.33;3.97;;;5.50;99.90;;;;;;5050080;28;20475;-72
2023/12/22 01:04:40;;;;;;;18.17;4.15;;;5.40;99.90;;;;;;5051978;28;20056;-72
2023/12/22 01:07:14;;;;;;;16.23;3.40;;;5.40;99.90;;;;;;5051579;28;20041;-71
2023/12/22 01:09:39;;;;;;;17.50;4.45;;;5.50;99.90;;;;;;5052312;28;20119;-71
2023/12/22 01:12:06;;;;;;;22.45;4.20;;;5.40;99.90;;;;;;5050364;28;20041;-73
2023/12/22 01:14:32;;;;;;;26.88;5.15;;;5.50;99.90;;;;;;5022015;28;20042;-73
2023/12/22 01:17:01;;;;;;;23.63;5.53;;;5.50;99.90;;;;;;5045439;28;20049;-73
2023/12/22 01:19:27;;;;;;;23.27;5.65;;;5.50;99.90;;;;;;5052120;28;20052;-72
2023/12/22 01:21:52;;;;;;;29.15;5.75;;;5.50;99.90;;;;;;5047532;28;20049;-72
2023/12/22 01:24:18;;;;;;;27.65;6.38;;;5.60;99.90;;;;;;5043827;28;20048;-72
2023/12/22 01:26:44;;;;;;;26.17;6.00;;;5.70;99.90;;;;;;5049873;28;20040;-72
2023/12/22 01:29:09;;;;;;;34.60;6.82;;;5.60;99.90;;;;;;5044152;28;20138;-72
2023/12/22 01:31:35;;;;;;;33.22;7.03;;;5.60;99.90;;;;;;5041882;28;20079;-73
2023/12/22 01:34:01;;;;;;;34.38;7.53;;;5.60;99.90;;;;;;5049780;28;20040;-72
2023/12/22 01:36:26;;;;;;;28.90;6.03;;;5.70;99.90;;;;;;5052130;28;20079;-72
2023/12/22 01:38:52;;;;;;;31.95;5.43;;;5.70;99.90;;;;;;5050137;28;20124;-72
2023/12/22 01:41:18;;;;;;;32.65;6.05;;;5.70;99.90;;;;;;5050061;28;20226;-71
2023/12/22 01:43:43;;;;;;;33.92;6.55;;;5.80;99.90;;;;;;5050422;28;20432;-72
2023/12/22 01:46:10;;;;;;;33.65;6.25;;;5.70;99.90;;;;;;5045969;28;20042;-72
2023/12/22 01:48:36;;;;;;;28.65;5.60;;;5.80;99.90;;;;;;5041311;28;20036;-72
2023/12/22 01:51:04;;;;;;;19.40;4.50;;;5.80;99.90;;;;;;5041370;28;20040;-73
2023/12/22 01:53:31;;;;;;;14.73;3.13;;;5.80;99.90;;;;;;5050677;28;20049;-73
2023/12/22 01:55:57;;;;;;;11.73;3.15;;;5.70;99.90;;;;;;5051378;28;20052;-73
2023/12/22 01:58:24;;;;;;;14.60;3.33;;;5.60;99.90;;;;;;5050180;28;20060;-72
2023/12/22 02:00:52;;;;;;;15.23;3.88;;;5.60;99.90;;;;;;5067392;28;20518;-73
2023/12/22 02:03:18;;;;;;;22.67;3.70;;;5.40;99.90;;;;;;5054342;28;20107;-73
2023/12/22 02:05:47;;;;;;;19.85;4.43;;;5.40;99.90;;;;;;5050353;28;20087;-72
2023/12/22 02:08:12;;;;;;;27.27;4.97;;;5.40;99.90;;;;;;5052855;28;20041;-73
2023/12/22 02:10:38;;;;;;;25.88;5.20;;;5.40;99.90;;;;;;5039192;28;20052;-72
2023/12/22 02:13:09;;;;;;;22.92;4.90;;;5.40;99.90;;;;;;5030033;28;20491;-73
2023/12/22 02:15:35;;;;;;;20.77;4.20;;;5.60;99.90;;;;;;5038716;28;20119;-74
2023/12/22 02:18:31;;;;;;;21.48;4.82;;;5.60;99.90;;;;;;5054202;28;20056;-73
2023/12/22 02:20:56;;;;;;;19.55;3.90;;;5.60;99.90;;;;;;5055331;28;20052;-74
2023/12/22 02:23:22;;;;;;;17.70;4.13;;;5.60;99.90;;;;;;5031893;28;20045;-74
2023/12/22 02:25:55;;;;;;;15.63;3.55;;;5.40;99.90;;;;;;5050164;28;20052;-74
2023/12/22 02:28:23;;;;;;;17.40;4.03;;;5.40;99.90;;;;;;5053079;28;20093;-73
2023/12/22 02:30:52;;;;;;;13.43;3.58;;;5.30;99.90;;;;;;5053796;28;20700;-73
2023/12/22 02:33:19;;;;;;;18.85;4.28;;;5.30;99.90;;;;;;5054429;28;20041;-74
2023/12/22 02:35:48;;;;;;;15.98;3.08;;;5.30;99.90;;;;;;5045770;28;20037;-72
2023/12/22 02:38:15;;;;;;;17.77;3.92;;;5.10;99.90;;;;;;5054374;28;20407;-72
2023/12/22 02:40:42;;;;;;;20.05;3.75;;;5.20;99.90;;;;;;5052165;28;20044;-72
2023/12/22 02:43:09;;;;;;;15.82;3.58;;;5.20;99.90;;;;;;5053372;28;20360;-73
2023/12/22 02:45:35;;;;;;;22.95;4.43;;;5.20;99.90;;;;;;5053431;28;20041;-73
2023/12/22 02:48:00;;;;;;;25.98;5.15;;;5.20;99.90;;;;;;5054786;28;20407;-72
2023/12/22 02:50:26;;;;;;;28.55;5.07;;;5.40;99.90;;;;;;5052618;28;20072;-73
2023/12/22 02:52:52;;;;;;;21.83;4.93;;;5.30;99.90;;;;;;5053196;28;20051;-73
2023/12/22 02:55:17;;;;;;;26.88;5.78;;;5.30;99.90;;;;;;5053984;28;20045;-72
2023/12/22 02:57:43;;;;;;;22.13;4.88;;;5.40;99.90;;;;;;5035516;28;20048;-73
2023/12/22 03:00:09;;;;;;;25.73;5.05;;;5.50;99.90;;;;;;5054087;28;20045;-74
2023/12/22 03:02:35;;;;;;;29.60;6.13;;;5.60;99.90;;;;;;5053384;28;20102;-72
2023/12/22 03:05:01;;;;;;;14.98;3.42;;;5.70;99.90;;;;;;5054186;28;20037;-72
2023/12/22 03:07:27;;;;;;;9.88;2.67;;;5.60;99.90;;;;;;5052825;28;20129;-73
2023/12/22 03:09:52;;;;;;;13.77;2.78;;;5.50;99.90;;;;;;5052482;28;20547;-72
2023/12/22 03:12:18;;;;;;;11.52;2.55;;;5.40;99.90;;;;;;5052505;28;20083;-71
2023/12/22 03:14:43;;;;;;;13.38;2.92;;;5.30;99.90;;;;;;5045287;28;20390;-71
2023/12/22 03:17:10;;;;;;;10.90;2.60;;;5.20;99.90;;;;;;5036485;28;20384;-72
2023/12/22 03:19:36;;;;;;;12.38;2.30;;;5.10;99.90;;;;;;5053502;28;20052;-72
2023/12/22 03:22:02;;;;;;;15.45;3.10;;;5.00;99.90;;;;;;5038895;28;20049;-72
2023/12/22 03:24:28;;;;;;;15.65;3.72;;;4.90;99.90;;;;;;5052801;28;20133;-72
2023/12/22 03:26:54;;;;;;;20.85;4.00;;;4.80;99.90;;;;;;5052687;28;20055;-72
2023/12/22 03:29:20;;;;;;;22.38;5.10;;;4.80;99.90;;;;;;5053621;28;20426;-72
2023/12/22 03:31:46;;;;;;;29.33;4.30;;;4.90;99.90;;;;;;5052947;28;20479;-72
2023/12/22 03:34:12;;;;;;;24.73;5.18;;;4.80;99.90;;;;;;5048110;28;20036;-71
2023/12/22 03:36:38;;;;;;;25.73;5.43;;;4.90;99.90;;;;;;5044792;28;20051;-72
2023/12/22 03:39:04;;;;;;;26.17;5.35;;;5.00;99.90;;;;;;5053795;28;20624;-72
2023/12/22 03:41:30;;;;;;;34.03;5.47;;;5.10;99.90;;;;;;5044860;28;20037;-72
2023/12/22 03:43:56;;;;;;;22.30;4.68;;;5.20;99.90;;;;;;5036006;28;20040;-72
2023/12/22 03:46:23;;;;;;;14.68;3.17;;;5.30;99.90;;;;;;5052727;28;20036;-73
2023/12/22 03:48:50;;;;;;;13.02;2.70;;;5.40;99.90;;;;;;5046854;28;20041;-72
2023/12/22 03:51:15;;;;;;;31.30;4.78;;;5.40;99.90;;;;;;5053625;28;20120;-72
2023/12/22 03:53:41;;;;;;;13.93;2.90;;;5.40;99.90;;;;;;5053164;28;20123;-72
2023/12/22 03:56:08;;;;;;;19.48;3.67;;;5.40;99.90;;;;;;5052356;28;20103;-72
2023/12/22 03:58:38;;;;;;;13.43;3.95;;;5.50;99.90;;;;;;5044909;28;20041;-72
2023/12/22 04:01:04;;;;;;;25.80;4.00;;;5.50;99.90;;;;;;5040841;28;20049;-72
2023/12/22 04:03:30;;;;;;;22.08;4.30;;;5.60;99.90;;;;;;5051855;28;20048;-72
2023/12/22 04:05:55;;;;;;;21.70;4.88;;;5.60;99.90;;;;;;5053300;28;20403;-72
2023/12/22 04:08:21;;;;;;;26.17;4.90;;;5.80;99.90;;;;;;5022158;28;20041;-73
2023/12/22 04:10:47;;;;;;;22.90;4.40;;;5.70;99.90;;;;;;5043460;28;20045;-73
2023/12/22 04:13:13;;;;;;;22.42;4.18;;;5.70;99.90;;;;;;5048910;28;20037;-72
2023/12/22 04:15:39;;;;;;;22.67;4.65;;;5.80;99.90;;;;;;5031558;28;20042;-72
2023/12/22 04:18:04;;;;;;;26.15;5.03;;;5.70;99.90;;;;;;5045113;28;20083;-73
2023/12/22 04:20:30;;;;;;;30.80;5.82;;;5.60;99.90;;;;;;5052082;28;20059;-72
2023/12/22 04:22:56;;;;;;;25.40;5.15;;;5.50;99.90;;;;;;5052512;28;20041;-73
2023/12/22 04:25:23;;;;;;;28.48;5.55;;;5.50;99.90;;;;;;5047579;28;20041;-73
2023/12/22 04:27:49;;;;;;;28.25;6.60;;;5.50;99.90;;;;;;5051706;28;20098;-73
2023/12/22 04:30:15;;;;;;;25.08;4.40;;;5.70;99.90;;;;;;5046266;28;20060;-71
2023/12/22 04:32:41;;;;;;;22.17;5.03;;;5.80;99.90;;;;;;5052462;28;20393;-73
2023/12/22 04:35:07;;;;;;;22.17;4.25;;;5.80;99.90;;;;;;5052424;28;20048;-74
2023/12/22 04:37:33;;;;;;;18.58;4.35;;;5.90;99.90;;;;;;5050043;28;20048;-73
2023/12/22 04:39:58;;;;;;;22.15;4.97;;;5.80;99.90;;;;;;5052423;28;20431;-72
2023/12/22 04:42:25;;;;;;;17.13;4.18;;;5.90;99.90;;;;;;5052245;28;20045;-73
2023/12/22 04:44:51;;;;;;;21.75;4.50;;;5.90;99.90;;;;;;5034821;28;20140;-72
2023/12/22 04:47:17;;;;;;;23.08;4.10;;;6.00;99.90;;;;;;5051276;28;20442;-73
2023/12/22 04:49:43;;;;;;;19.52;4.68;;;6.00;99.90;;;;;;5049691;28;20102;-72
2023/12/22 04:52:09;;;;;;;18.95;4.72;;;6.10;99.90;;;;;;5039826;28;20099;-72
2023/12/22 04:54:35;;;;;;;20.02;4.70;;;6.10;99.90;;;;;;5033324;28;21508;-73
2023/12/22 04:57:00;;;;;;;22.10;4.65;;;6.10;99.90;;;;;;5052478;28;20056;-72
2023/12/22 04:59:26;;;;;;;19.60;4.47;;;6.10;99.90;;;;;;5052344;28;20373;-72
2023/12/22 05:01:52;;;;;;;23.63;4.88;;;6.10;99.90;;;;;;5051398;28;20052;-72
2023/12/22 05:04:17;;;;;;;16.95;3.47;;;6.10;99.90;;;;;;5028214;28;20175;-72
2023/12/22 05:06:45;;;;;;;17.00;3.72;;;6.00;99.90;;;;;;5051770;28;20075;-73
2023/12/22 05:09:11;;;;;;;19.67;4.88;;;6.10;99.90;;;;;;5052254;28;20052;-72
2023/12/22 05:11:37;;;;;;;23.70;4.57;;;6.20;99.90;;;;;;5050467;28;20134;-73
2023/12/22 05:14:02;;;;;;;24.92;4.82;;;6.20;99.90;;;;;;5050425;28;20461;-72
2023/12/22 05:16:30;;;;;;;24.33;5.10;;;6.20;99.90;;;;;;5049855;28;20055;-71
2023/12/22 05:18:59;;;;;;;25.38;4.65;;;6.20;99.90;;;;;;5051350;28;20488;-72
2023/12/22 05:21:25;;;;;;;25.13;5.28;;;6.30;99.90;;;;;;5051102;28;20048;-72
2023/12/22 05:23:51;;;;;;;21.73;4.50;;;6.30;99.90;;;;;;5051062;28;20047;-71
2023/12/22 05:26:18;;;;;;;29.38;5.95;;;6.30;99.90;;;;;;5050213;28;20045;-72
2023/12/22 05:28:44;;;;;;;30.58;4.70;;;6.40;99.90;;;;;;5049717;28;20419;-72
2023/12/22 05:31:09;;;;;;;29.30;5.32;;;6.30;99.90;;;;;;5051078;28;20500;-72
2023/12/22 05:33:35;;;;;;;28.50;4.80;;;6.40;99.90;;;;;;5033220;28;20064;-72
2023/12/22 05:36:01;;;;;;;27.58;5.50;;;6.30;99.90;;;;;;5049498;28;20049;-72
2023/12/22 05:38:26;;;;;;;24.85;5.03;;;6.30;99.90;;;;;;5045921;28;20492;-72
2023/12/22 05:40:52;;;;;;;26.45;5.18;;;6.30;99.90;;;;;;5051082;28;20040;-71
2023/12/22 05:43:18;;;;;;;24.55;5.35;;;6.40;99.90;;;;;;5050828;28;20041;-71
2023/12/22 05:45:43;;;;;;;27.63;5.28;;;6.40;99.90;;;;;;5050897;28;20045;-73
2023/12/22 05:48:09;;;;;;;21.63;4.53;;;6.50;99.90;;;;;;5051927;28;20090;-73
2023/12/22 05:50:35;;;;;;;24.38;4.63;;;6.40;99.90;;;;;;5050360;28;20518;-72
2023/12/22 05:53:01;;;;;;;24.05;4.63;;;6.40;99.90;;;;;;5051261;28;20057;-71
2023/12/22 05:55:26;;;;;;;25.92;5.25;;;6.50;99.90;;;;;;5049512;28;20079;-73
2023/12/22 05:57:53;;;;;;;24.02;5.43;;;6.50;99.90;;;;;;5050390;28;20044;-72
2023/12/22 06:00:19;;;;;;;24.67;5.47;;;6.40;99.90;;;;;;5051767;28;20377;-72
2023/12/22 06:02:45;;;;;;;30.42;5.53;;;6.50;99.90;;;;;;5040134;28;20045;-73
2023/12/22 06:05:11;;;;;;;29.15;5.15;;;6.40;99.90;;;;;;5051156;28;20041;-72
2023/12/22 06:07:36;;;;;;;29.60;5.80;;;6.50;99.90;;;;;;5050078;28;20040;-71
2023/12/22 06:10:02;;;;;;;24.67;4.65;;;6.40;99.90;;;;;;5050749;28;20159;-71
2023/12/22 06:12:28;;;;;;;24.15;4.05;;;6.50;99.90;;;;;;5043147;28;20044;-72
2023/12/22 06:14:53;;;;;;;22.13;4.32;;;6.40;99.90;;;;;;5037811;28;20045;-73
2023/12/22 06:17:19;;;;;;;26.02;5.68;;;6.50;99.90;;;;;;5051166;28;20396;-72
2023/12/22 06:19:45;;;;;;;23.60;3.88;;;6.40;99.90;;;;;;5033284;28;20127;-72
2023/12/22 06:22:10;;;;;;;25.25;4.80;;;6.50;99.90;;;;;;5050909;28;20085;-71
2023/12/22 06:24:36;;;;;;;22.13;4.53;;;6.50;99.90;;;;;;5050475;28;20102;-72
2023/12/22 06:27:02;;;;;;;21.85;4.68;;;6.50;99.90;;;;;;5032020;28;20852;-72
2023/12/22 06:29:27;;;;;;;20.48;4.40;;;6.50;99.90;;;;;;5039247;28;20084;-73
2023/12/22 06:31:53;;;;;;;26.27;4.35;;;6.50;99.90;;;;;;5050734;28;20492;-73
2023/12/22 06:34:19;;;;;;;25.20;4.60;;;6.50;99.90;;;;;;5051050;28;20086;-72
2023/12/22 06:36:45;;;;;;;30.13;5.25;;;6.50;99.90;;;;;;5046711;28;20069;-72
2023/12/22 06:39:10;;;;;;;29.40;4.82;;;6.50;99.90;;;;;;5038451;28;20052;-71
2023/12/22 06:41:36;;;;;;;21.38;5.18;;;6.50;99.90;;;;;;5050038;28;20484;-74
2023/12/22 06:44:02;;;;;;;19.67;4.32;;;6.50;99.90;;;;;;5049639;28;20152;-73
2023/12/22 06:46:28;;;;;;;18.15;3.63;;;6.30;99.90;;;;;;5006795;28;20053;-72
2023/12/22 06:48:55;;;;;;;20.23;3.97;;;6.20;99.90;;;;;;5030538;28;20061;-70
2023/12/22 06:51:26;;;;;;;18.60;3.03;;;6.00;99.90;;;;;;5054447;28;20102;-71
2023/12/22 06:53:52;;;;;;;15.90;2.97;;;5.90;99.90;;;;;;5054223;28;20381;-71
2023/12/22 06:56:23;;;;;;;11.77;2.85;;;5.80;99.90;;;;;;5054440;28;20611;-72
2023/12/22 06:58:50;;;;;;;14.25;3.10;;;5.70;99.90;;;;;;5054019;28;20045;-71
2023/12/22 07:01:25;;;;;;;12.88;3.35;;;5.60;99.90;;;;;;5047844;28;20518;-72
2023/12/22 07:03:51;;;;;;;14.73;3.22;;;5.60;99.90;;;;;;5035893;28;20064;-72
2023/12/22 07:06:18;;;;;;;25.30;4.40;;;5.60;99.90;;;;;;5047522;28;20033;-72
2023/12/22 07:08:44;;;;;;;23.50;3.75;;;5.70;99.90;;;;;;5051664;28;20566;-72
2023/12/22 07:11:10;;;;;;;18.23;3.90;;;5.70;99.90;;;;;;5052704;28;20049;-72
2023/12/22 07:13:37;;;;;;;18.50;3.67;;;5.80;99.90;;;;;;5050621;28;20045;-72
2023/12/22 07:16:06;;;;;;;17.60;3.83;;;5.80;99.90;;;;;;5042084;28;20052;-73
2023/12/22 07:18:32;;;;;;;21.30;4.30;;;5.90;99.90;;;;;;5052713;28;20049;-72
2023/12/22 07:20:59;;;;;;;18.00;3.60;;;6.00;99.90;;;;;;5052563;28;20053;-72
2023/12/22 07:23:25;;;;;;;20.38;3.80;;;6.10;99.90;;;;;;5053315;28;20057;-71
2023/12/22 07:25:50;;;;;;;20.67;4.18;;;6.10;99.90;;;;;;5049260;28;20041;-72
2023/12/22 07:28:16;;;;;;;17.85;4.60;;;6.10;99.90;;;;;;5046910;28;20399;-73
2023/12/22 07:30:42;;;;;;;20.40;4.32;;;6.00;99.90;;;;;;5053403;28;20612;-72
2023/12/22 07:33:07;;;;;;;19.67;4.55;;;5.90;99.90;;;;;;5053445;28;20057;-73
2023/12/22 07:35:34;;;;;;;24.73;5.05;;;5.80;99.90;;;;;;5047246;28;20116;-73
2023/12/22 07:38:00;;;;;;;21.88;3.97;;;5.80;99.90;;;;;;5047836;28;20049;-72
2023/12/22 07:40:25;;;;;;;20.13;4.65;;;5.60;99.90;;;;;;5069062;28;20053;-72
2023/12/22 07:42:51;;;;;;;23.85;3.88;;;5.60;99.90;;;;;;5052234;28;20407;-72
2023/12/22 07:45:17;;;;;;;21.33;4.00;;;5.60;99.90;;;;;;5052470;28;20202;-74
2023/12/22 07:47:43;;;;;;;25.27;4.45;;;5.60;99.90;;;;;;5050784;28;20136;-73
2023/12/22 07:50:09;;;;;;;28.35;5.03;;;5.50;99.90;;;;;;4999747;28;20048;-72
2023/12/22 07:52:38;;;;;;;25.58;4.82;;;5.50;99.90;;;;;;5053511;28;20049;-72
2023/12/22 07:55:11;;;;;;;20.02;4.15;;;5.50;99.90;;;;;;5051691;28;20041;-73
2023/12/22 07:57:38;;;;;;;22.88;4.38;;;5.50;99.90;;;;;;5051001;28;20041;-72
2023/12/22 08:00:05;;;;;;;20.52;5.32;;;5.50;99.90;;;;;;5051668;28;20041;-72
2023/12/22 08:02:30;;;;;;;22.35;4.47;;;5.50;99.90;;;;;;5050208;28;20049;-72
2023/12/22 08:04:56;;;;;;;23.83;4.93;;;5.60;99.90;;;;;;5052547;28;20381;-73
2023/12/22 08:07:22;;;;;;;22.67;4.65;;;5.60;99.90;;;;;;5053244;28;20045;-73
2023/12/22 08:09:47;;;;;;;21.05;4.18;;;5.60;99.90;;;;;;5051837;28;20045;-73
2023/12/22 08:12:13;;;;;;;22.80;4.30;;;5.60;99.90;;;;;;5051702;28;20487;-74
2023/12/22 08:14:39;;;;;;;27.48;5.03;;;5.60;99.90;;;;;;5040337;28;20080;-73
2023/12/22 08:17:05;;;;;;;19.95;3.90;;;5.60;99.90;;;;;;5049636;28;20388;-73
2023/12/22 08:19:30;;;;;;;20.38;3.88;;;5.70;99.90;;;;;;5050485;28;20053;-73
2023/12/22 08:21:56;;;;;;;20.35;3.53;;;5.80;99.90;;;;;;5052190;28;20048;-72
2023/12/22 08:24:22;;;;;;;24.58;4.53;;;5.90;99.90;;;;;;5030168;28;20050;-72
2023/12/22 08:26:48;;;;;;;20.48;4.72;;;6.10;99.90;;;;;;5027034;28;20049;-70
2023/12/22 08:29:15;;;;;;;19.92;3.65;;;6.10;99.90;;;;;;5051818;28;20048;-71
2023/12/22 08:31:41;;;;;;;18.52;3.85;;;6.20;99.90;;;;;;5051902;28;20057;-71
2023/12/22 08:34:07;;;;;;;17.52;4.20;;;6.20;99.90;;;;;;5050685;28;20396;-71
2023/12/22 08:36:33;;;;;;;17.40;3.85;;;6.30;99.90;;;;;;5050123;28;20450;-71
2023/12/22 08:38:58;;;;;;;16.30;3.38;;;6.20;99.90;;;;;;5048773;28;20052;-71
2023/12/22 08:41:24;;;;;;;20.70;4.20;;;6.20;99.90;;;;;;5051129;28;20037;-70
2023/12/22 08:43:50;;;;;;;19.85;3.40;;;6.20;99.90;;;;;;5052060;28;20052;-71
2023/12/22 08:46:16;;;;;;;25.73;4.55;;;6.20;99.90;;;;;;5041284;28;20126;-71
2023/12/22 08:48:42;;;;;;;20.75;3.97;;;6.30;99.90;;;;;;5047075;28;20045;-72
2023/12/22 08:51:08;;;;;;;18.13;3.63;;;6.30;99.90;;;;;;5049638;28;20049;-73
2023/12/22 08:53:36;;;;;;;19.42;4.32;;;6.30;99.90;;;;;;5036357;28;20377;-72
2023/12/22 08:56:03;;;;;;;16.58;4.45;;;6.40;99.90;;;;;;5048844;28;20041;-73
2023/12/22 08:58:32;;;;;;;13.45;3.80;;;6.40;99.90;;;;;;5045019;28;20041;-73
2023/12/22 09:00:58;;;;;;;23.98;3.95;;;6.40;99.90;;;;;;5052164;28;20040;-73
2023/12/22 09:03:23;;;;;;;20.98;4.53;;;6.40;99.90;;;;;;5044784;28;20042;-72
2023/12/22 09:05:49;;;;;;;20.58;3.90;;;6.30;99.90;;;;;;5052076;28;20041;-73
2023/12/22 09:08:15;;;;;;;20.60;4.25;;;6.40;99.90;;;;;;5051950;28;20463;-73
2023/12/22 09:10:40;;;;;;;25.58;4.20;;;6.30;99.90;;;;;;5034315;28;20044;-73
2023/12/22 09:13:06;;;;;;;21.05;4.25;;;6.40;99.90;;;;;;5051595;28;20121;-73
2023/12/22 09:15:32;;;;;;;16.23;3.95;;;6.40;99.90;;;;;;5038515;28;20120;-73
2023/12/22 09:17:57;;;;;;;21.48;4.25;;;6.40;99.90;;;;;;5051219;28;20411;-73
2023/12/22 09:20:23;;;;;;;22.02;4.95;;;6.40;99.90;;;;;;5043576;28;20095;-73
2023/12/22 09:22:49;;;;;;;23.75;4.55;;;6.40;99.90;;;;;;5051524;28;20045;-73
2023/12/22 09:25:15;;;;;;;18.10;3.97;;;6.40;99.90;;;;;;5048748;28;20037;-73
2023/12/22 09:27:40;;;;;;;20.02;4.43;;;6.40;99.90;;;;;;5050862;28;20515;-74
2023/12/22 09:30:07;;;;;;;18.45;3.53;;;6.40;99.90;;;;;;5050311;28;20053;-75
2023/12/22 09:32:33;;;;;;;16.73;3.40;;;6.50;99.90;;;;;;5050865;28;20052;-74
2023/12/22 09:35:01;;;;;;;23.33;4.70;;;6.50;99.90;;;;;;5041122;28;20461;-74
2023/12/22 09:37:27;;;;;;;14.40;2.80;;;6.50;99.90;;;;;;5048737;28;20211;-75
2023/12/22 09:39:53;;;;;;;19.23;3.42;;;6.50;99.90;;;;;;5051460;28;20505;-74
2023/12/22 09:42:25;;;;;;;18.98;3.55;;;6.50;99.90;;;;;;5050049;28;20041;-74
2023/12/22 09:44:53;;;;;;;13.95;3.17;;;6.50;99.90;;;;;;5031857;28;20056;-75
2023/12/22 09:47:20;;;;;;;15.00;3.25;;;6.50;99.90;;;;;;5036010;28;20404;-74
2023/12/22 09:49:48;;;;;;;17.00;3.70;;;6.50;99.90;;;;;;5051617;28;20131;-74
2023/12/22 09:52:16;;;;;;;19.42;3.72;;;6.50;99.90;;;;;;5050159;28;20348;-72
2023/12/22 09:54:43;;;;;;;21.42;4.18;;;6.60;99.90;;;;;;5045480;28;20503;-73
2023/12/22 09:57:09;;;;;;;16.45;3.65;;;6.60;99.90;;;;;;5040835;28;20049;-74
2023/12/22 09:59:36;;;;;;;16.50;3.35;;;6.70;99.90;;;;;;5048909;28;20037;-75
2023/12/22 10:02:04;;;;;;;18.35;3.17;;;6.70;99.90;;;;;;5033844;28;20044;-73
2023/12/22 10:04:30;;;;;;;21.08;2.85;;;6.80;99.90;;;;;;5048014;28;20045;-74
2023/12/22 10:07:05;;;;;;;15.02;2.70;;;6.80;99.90;;;;;;5050622;28;20037;-76
2023/12/22 10:09:32;;;;;;;15.57;3.00;;;6.80;99.90;;;;;;5043692;28;20069;-73
2023/12/22 10:12:01;;;;;;;16.80;3.75;;;6.90;99.90;;;;;;5050591;28;20492;-75
2023/12/22 10:14:27;;;;;;;19.40;3.85;;;6.90;99.90;;;;;;5038202;28;20037;-74
2023/12/22 10:16:53;;;;;;;17.67;3.70;;;6.90;99.90;;;;;;5050221;28;20403;-74
2023/12/22 10:19:22;;;;;;;14.80;3.00;;;7.00;99.90;;;;;;5024706;28;20087;-74
2023/12/22 10:21:51;;;;;;;12.85;3.10;;;6.90;99.90;;;;;;5039206;28;20041;-76
2023/12/22 10:24:50;;;;;;;12.32;2.80;;;7.00;99.90;;;;;;5041177;28;20037;-73
2023/12/22 10:27:24;;;;;;;12.05;2.72;;;7.00;99.90;;;;;;5057293;28;20156;-75
2023/12/22 10:29:54;;;;;;;12.88;2.97;;;7.00;99.90;;;;;;5045475;28;20061;-75
2023/12/22 10:32:21;;;;;;;18.40;3.13;;;7.10;99.90;;;;;;5052400;28;20506;-74
2023/12/22 10:34:47;;;;;;;21.73;3.67;;;7.10;99.90;;;;;;5053269;28;20045;-74
2023/12/22 10:37:13;;;;;;;17.30;3.58;;;7.20;99.90;;;;;;5042200;28;20068;-73
2023/12/22 10:39:39;;;;;;;17.92;3.03;;;7.20;99.90;;;;;;5047936;28;20499;-74
2023/12/22 10:42:06;;;;;;;18.45;3.90;;;7.20;99.90;;;;;;5036374;28;20515;-74
2023/12/22 10:44:32;;;;;;;17.92;3.30;;;7.20;99.90;;;;;;5054231;28;20037;-75
2023/12/22 10:46:58;;;;;;;22.42;4.30;;;7.20;99.90;;;;;;5053974;28;20408;-73
2023/12/22 10:49:25;;;;;;;17.17;4.00;;;7.30;99.90;;;;;;5049859;28;20054;-73
2023/12/22 10:51:51;;;;;;;18.45;3.33;;;7.30;99.90;;;;;;5051443;28;20488;-73
2023/12/22 10:54:18;;;;;;;19.70;3.13;;;7.20;99.90;;;;;;5052298;28;20044;-73
2023/12/22 10:56:44;;;;;;;13.43;3.38;;;7.30;99.90;;;;;;5052466;28;20045;-68
2023/12/22 10:59:10;;;;;;;14.57;3.40;;;7.30;99.90;;;;;;5051798;28;20048;-72
2023/12/22 11:01:40;;;;;;;11.60;3.10;;;7.50;99.90;;;;;;5049840;28;20190;-72
2023/12/22 11:04:07;;;;;;;19.67;2.97;;;7.50;99.90;;;;;;5046935;28;20119;-72
2023/12/22 11:06:37;;;;;;;20.23;4.05;;;7.50;99.90;;;;;;5052607;28;20041;-73
2023/12/22 11:09:10;;;;;;;15.00;3.05;;;7.50;99.90;;;;;;5036840;28;20080;-72
2023/12/22 11:11:37;;;;;;;16.33;3.08;;;7.40;99.90;;;;;;5023923;28;20535;-71
2023/12/22 11:14:04;;;;;;;20.63;3.80;;;7.40;99.90;;;;;;5047919;28;20045;-73
2023/12/22 11:16:33;;;;;;;18.02;3.22;;;7.40;99.90;;;;;;5054100;28;20053;-73
2023/12/22 11:19:00;;;;;;;23.20;3.35;;;7.40;99.90;;;;;;5054345;28;20045;-73
2023/12/22 11:21:26;;;;;;;15.32;3.35;;;7.40;99.90;;;;;;5044211;28;20046;-72
2023/12/22 11:23:53;;;;;;;17.63;3.17;;;7.40;99.90;;;;;;5049274;28;20049;-72
2023/12/22 11:26:20;;;;;;;17.75;2.97;;;7.40;99.90;;;;;;5049836;28;20045;-73
2023/12/22 11:28:48;;;;;;;20.75;3.25;;;7.50;99.90;;;;;;5049463;28;20842;-73
2023/12/22 11:31:13;;;;;;;16.45;3.22;;;7.60;99.90;;;;;;5051776;28;20136;-69
2023/12/22 11:33:47;;;;;;;20.83;3.50;;;7.40;99.90;;;;;;5046073;28;20178;-71
2023/12/22 11:36:14;;;;;;;18.08;2.83;;;7.50;99.90;;;;;;5041059;28;20534;-71
2023/12/22 11:38:41;;;;;;;15.68;3.40;;;7.50;99.90;;;;;;5053530;28;20124;-71
2023/12/22 11:41:11;;;;;;;21.05;3.63;;;7.50;99.90;;;;;;5052168;28;20463;-70
2023/12/22 11:43:38;;;;;;;16.95;4.10;;;7.60;99.90;;;;;;5052213;28;20080;-70
2023/12/22 11:46:04;;;;;;;15.00;2.92;;;7.60;99.90;;;;;;5053757;28;20045;-71
2023/12/22 11:48:30;;;;;;;13.77;3.65;;;7.50;99.90;;;;;;5053079;28;20052;-72
2023/12/22 11:50:56;;;;;;;16.10;3.28;;;7.60;99.90;;;;;;5051305;28;20045;-71
2023/12/22 11:53:29;;;;;;;17.75;3.58;;;7.60;99.90;;;;;;5052015;28;20116;-71
2023/12/22 11:56:08;;;;;;;14.68;2.90;;;7.60;99.90;;;;;;5053617;28;20042;-71
2023/12/22 11:58:37;;;;;;;16.58;3.50;;;7.60;99.90;;;;;;5053242;28;20124;-71
2023/12/22 12:01:14;;;;;;;24.50;3.85;;;7.60;99.90;;;;;;5051636;28;20041;-70
2023/12/22 12:04:03;;;;;;;17.90;3.40;;;7.60;99.90;;;;;;5044407;28;20040;-70
2023/12/22 12:06:29;;;;;;;16.27;3.50;;;7.60;99.90;;;;;;5053471;28;20525;-70
2023/12/22 12:08:58;;;;;;;16.42;3.17;;;7.60;99.90;;;;;;5045945;28;20120;-71
2023/12/22 12:11:58;;;;;;;21.45;4.38;;;7.70;99.90;;;;;;5051472;28;20053;-71
2023/12/22 12:14:32;;;;;;;12.35;2.50;;;7.60;99.90;;;;;;5046192;28;20118;-70
2023/12/22 12:17:11;;;;;;;;;;;7.70;99.90;;;;;;5053439;28;20088;-70
2023/12/22 12:19:43;;;;;;;17.70;3.47;;;7.60;99.90;;;;;;5048903;28;20302;-70
2023/12/22 12:22:09;;;;;;;15.25;3.22;;;7.60;99.90;;;;;;5038904;28;20041;-71
2023/12/22 12:24:36;;;;;;;19.75;3.50;;;7.70;99.90;;;;;;5047979;28;20396;-71
2023/12/22 12:27:02;;;;;;;18.85;4.00;;;7.70;99.90;;;;;;5052753;28;20483;-71
2023/12/22 12:29:28;;;;;;;20.15;2.92;;;7.70;99.90;;;;;;5050656;28;20083;-70
2023/12/22 12:32:03;;;;;;;14.98;2.67;;;7.70;99.90;;;;;;5048584;28;20480;-70
2023/12/22 12:34:29;;;;;;;18.17;3.60;;;7.70;99.90;;;;;;5044899;28;20072;-71
2023/12/22 12:36:55;;;;;;;15.23;2.90;;;7.70;99.90;;;;;;5046990;28;20053;-71
2023/12/22 12:39:22;;;;;;;10.30;3.20;;;7.60;99.90;;;;;;5052811;28;20048;-71
2023/12/22 12:41:53;;;;;;;13.52;3.17;;;7.60;99.90;;;;;;5050903;28;20133;-72
2023/12/22 12:44:21;;;;;;;16.58;2.83;;;7.60;99.90;;;;;;5051908;28;20064;-72
2023/12/22 12:46:47;;;;;;;14.80;2.70;;;7.60;99.90;;;;;;5037769;28;20045;-70